createdAt,value
2017-05-01T04:00:56.296Z,5
2017-05-01T04:01:21.780Z,5
2017-05-01T04:01:47.262Z,5
2017-05-01T04:02:12.757Z,5
2017-05-01T04:02:38.236Z,5
2017-05-01T04:03:03.716Z,5
2017-05-01T04:03:29.170Z,5
2017-05-01T04:03:54.653Z,5
2017-05-01T04:04:20.168Z,5
2017-05-01T04:04:45.621Z,5
2017-05-01T04:05:11.079Z,5
2017-05-01T04:05:36.569Z,5
2017-05-01T04:06:02.007Z,10
2017-05-01T04:06:27.497Z,10
2017-05-01T04:06:52.965Z,10
2017-05-01T04:07:18.441Z,10
2017-05-01T04:07:43.905Z,10
2017-05-01T04:08:09.420Z,10
2017-05-01T04:08:34.848Z,10
2017-05-01T04:09:00.337Z,10
2017-05-01T04:09:25.782Z,10
2017-05-01T04:09:51.233Z,10
2017-05-01T04:10:16.739Z,15
2017-05-01T04:10:42.208Z,15
2017-05-01T04:11:07.682Z,15
2017-05-01T04:11:33.127Z,15
2017-05-01T04:11:58.612Z,15
2017-05-01T04:12:24.096Z,15
2017-05-01T04:12:49.555Z,15
2017-05-01T04:13:15.035Z,15
2017-05-01T04:13:40.514Z,20
2017-05-01T04:14:05.955Z,20
2017-05-01T04:14:31.422Z,20
2017-05-01T04:14:56.876Z,20
2017-05-01T04:15:22.334Z,20
2017-05-01T04:15:47.793Z,20
2017-05-01T04:16:13.266Z,20
2017-05-01T04:16:38.716Z,20
2017-05-01T04:17:04.227Z,25
2017-05-01T04:17:29.693Z,25
2017-05-01T04:17:55.139Z,25
2017-05-01T04:18:20.601Z,25
2017-05-01T04:18:46.073Z,25
2017-05-01T04:19:11.548Z,25
2017-05-01T04:19:37.013Z,25
2017-05-01T04:20:02.471Z,25
2017-05-01T04:20:27.965Z,25
2017-05-01T04:20:53.434Z,25
2017-05-01T04:21:18.934Z,25
2017-05-01T04:21:44.410Z,25
2017-05-01T04:22:09.881Z,25
2017-05-01T04:22:35.353Z,25
2017-05-01T04:23:00.857Z,25
2017-05-01T04:23:26.271Z,25
2017-05-01T04:23:51.744Z,25
2017-05-01T04:24:17.237Z,25
2017-05-01T04:24:42.772Z,30
2017-05-01T04:25:08.265Z,30
2017-05-01T04:25:33.722Z,30
2017-05-01T04:25:59.212Z,30
2017-05-01T04:26:24.700Z,30
2017-05-01T04:26:50.174Z,30
2017-05-01T04:27:15.666Z,30
2017-05-01T04:27:41.102Z,30
2017-05-01T04:28:06.582Z,30
2017-05-01T04:28:32.035Z,35
2017-05-01T04:28:57.535Z,35
2017-05-01T04:29:23.017Z,35
2017-05-01T04:29:48.475Z,35
2017-05-01T04:30:13.956Z,35
2017-05-01T04:30:39.447Z,35
2017-05-01T04:31:04.909Z,35
2017-05-01T04:31:30.358Z,35
2017-05-01T04:31:55.817Z,40
2017-05-01T04:32:21.291Z,40
2017-05-01T04:32:46.761Z,40
2017-05-01T04:33:12.229Z,40
2017-05-01T04:33:37.669Z,40
2017-05-01T04:34:03.117Z,40
2017-05-01T04:34:28.568Z,40
2017-05-01T04:34:54.047Z,45
2017-05-01T04:35:19.479Z,45
2017-05-01T04:35:44.937Z,45
2017-05-01T04:36:10.460Z,45
2017-05-01T04:36:35.929Z,45
2017-05-01T04:37:01.411Z,45
2017-05-01T04:37:26.869Z,45
2017-05-01T04:37:52.320Z,50
2017-05-01T04:38:17.823Z,50
2017-05-01T04:38:43.308Z,50
2017-05-01T04:39:08.786Z,50
2017-05-01T04:39:34.255Z,50
2017-05-01T04:39:59.751Z,50
2017-05-01T04:40:25.223Z,50
2017-05-01T04:40:50.686Z,50
2017-05-01T04:41:16.179Z,50
2017-05-01T04:41:41.637Z,55
2017-05-01T04:42:07.129Z,55
2017-05-01T04:42:32.591Z,55
2017-05-01T04:42:58.057Z,55
2017-05-01T04:43:23.535Z,55
2017-05-01T04:43:48.963Z,55
2017-05-01T04:44:14.427Z,55
2017-05-01T04:44:39.905Z,55
2017-05-01T04:45:05.376Z,55
2017-05-01T04:45:30.837Z,55
2017-05-01T04:45:56.302Z,55
2017-05-01T04:46:21.764Z,55
2017-05-01T04:46:47.195Z,55
2017-05-01T04:47:12.672Z,55
2017-05-01T04:47:38.134Z,55
2017-05-01T04:48:03.624Z,60
2017-05-01T04:48:29.079Z,60
2017-05-01T04:48:54.574Z,60
2017-05-01T04:49:20.059Z,60
2017-05-01T04:49:45.529Z,60
2017-05-01T04:50:11.010Z,60
2017-05-01T04:50:36.468Z,60
2017-05-01T04:51:01.931Z,60
2017-05-01T04:51:27.376Z,60
2017-05-01T04:51:52.847Z,70
2017-05-01T04:52:18.355Z,65
2017-05-01T04:52:43.793Z,65
2017-05-01T04:53:09.253Z,65
2017-05-01T04:53:34.742Z,70
2017-05-01T04:54:00.211Z,70
2017-05-01T04:54:25.658Z,70
2017-05-01T04:54:51.154Z,70
2017-05-01T04:55:16.635Z,70
2017-05-01T04:55:42.099Z,70
2017-05-01T04:56:07.583Z,70
2017-05-01T04:56:33.050Z,70
2017-05-01T04:56:58.524Z,75
2017-05-01T04:57:23.964Z,75
2017-05-01T04:57:49.446Z,75
2017-05-01T04:58:14.927Z,75
2017-05-01T04:58:40.418Z,75
2017-05-01T04:59:05.875Z,80
2017-05-01T04:59:31.380Z,80
2017-05-01T04:59:56.819Z,80
2017-05-01T05:00:22.301Z,80
2017-05-01T05:00:47.786Z,80
2017-05-01T05:01:13.260Z,80
2017-05-01T05:01:38.715Z,85
2017-05-01T05:02:04.181Z,85
2017-05-01T05:02:29.665Z,85
2017-05-01T05:02:55.107Z,85
2017-05-01T05:03:20.569Z,85
2017-05-01T05:03:46.051Z,85
2017-05-01T05:04:11.597Z,85
2017-05-01T05:04:37.061Z,85
2017-05-01T05:05:02.501Z,85
2017-05-01T05:05:27.947Z,85
2017-05-01T05:05:53.422Z,85
2017-05-01T05:06:18.875Z,85
2017-05-01T05:06:44.383Z,85
2017-05-01T05:07:09.848Z,85
2017-05-01T05:07:35.325Z,85
2017-05-01T05:08:00.757Z,85
2017-05-01T05:08:26.247Z,85
2017-05-01T05:08:51.717Z,85
2017-05-01T05:09:17.164Z,85
2017-05-01T05:09:42.634Z,90
2017-05-01T05:10:08.095Z,90
2017-05-01T05:10:33.578Z,90
2017-05-01T05:10:59.038Z,90
2017-05-01T05:11:24.515Z,90
2017-05-01T05:11:50.007Z,90
2017-05-01T05:12:15.482Z,90
2017-05-01T05:12:40.940Z,95
2017-05-01T05:13:06.407Z,95
2017-05-01T05:13:31.892Z,95
2017-05-01T05:13:57.326Z,95
2017-05-01T05:14:22.781Z,95
2017-05-01T05:14:48.294Z,100
2017-05-01T05:15:13.759Z,100
2017-05-01T05:15:39.212Z,100
2017-05-01T05:16:04.700Z,100
2017-05-01T05:16:30.188Z,105
2017-05-01T05:16:55.645Z,105
2017-05-01T05:17:21.102Z,105
2017-05-01T05:17:46.600Z,105
2017-05-01T05:18:12.056Z,105
2017-05-01T05:18:37.542Z,110
2017-05-01T05:19:02.986Z,110
2017-05-01T05:19:28.483Z,110
2017-05-01T05:19:53.965Z,110
2017-05-01T05:20:19.443Z,115
2017-05-01T05:20:44.930Z,115
2017-05-01T05:21:10.397Z,115
2017-05-01T05:21:35.881Z,115
2017-05-01T05:22:01.344Z,115
2017-05-01T05:22:26.814Z,120
2017-05-01T05:22:52.288Z,120
2017-05-01T05:23:17.769Z,120
2017-05-01T05:23:43.262Z,120
2017-05-01T05:24:08.720Z,125
2017-05-01T05:24:34.190Z,125
2017-05-01T05:24:59.660Z,125
2017-05-01T05:25:25.123Z,130
2017-05-01T05:25:50.609Z,130
2017-05-01T05:26:16.063Z,130
2017-05-01T05:26:41.502Z,130
2017-05-01T05:27:06.981Z,130
2017-05-01T05:27:32.457Z,130
2017-05-01T05:27:57.895Z,130
2017-05-01T05:28:23.359Z,130
2017-05-01T05:28:48.851Z,130
2017-05-01T05:29:14.304Z,135
2017-05-01T05:29:39.774Z,135
2017-05-01T05:30:05.259Z,135
2017-05-01T05:30:30.735Z,135
2017-05-01T05:30:56.188Z,135
2017-05-01T05:31:21.676Z,135
2017-05-01T05:31:47.123Z,135
2017-05-01T05:32:12.568Z,135
2017-05-01T05:32:38.083Z,135
2017-05-01T05:33:03.603Z,135
2017-05-01T05:33:29.010Z,135
2017-05-01T05:33:54.471Z,135
2017-05-01T05:34:19.959Z,135
2017-05-01T05:34:45.402Z,135
2017-05-01T05:35:10.881Z,135
2017-05-01T05:35:36.337Z,135
2017-05-01T05:36:01.835Z,135
2017-05-01T05:36:27.287Z,135
2017-05-01T05:36:52.788Z,135
2017-05-01T05:37:18.265Z,135
2017-05-01T05:37:43.746Z,130
2017-05-01T05:38:09.233Z,130
2017-05-01T05:38:34.697Z,130
2017-05-01T05:39:00.145Z,135
2017-05-01T05:39:25.613Z,130
2017-05-01T05:39:51.114Z,130
2017-05-01T05:40:16.582Z,130
2017-05-01T05:40:42.024Z,130
2017-05-01T05:41:07.477Z,130
2017-05-01T05:41:32.948Z,130
2017-05-01T05:41:58.417Z,130
2017-05-01T05:42:23.871Z,130
2017-05-01T05:42:49.313Z,130
2017-05-01T05:43:14.787Z,130
2017-05-01T05:43:40.305Z,130
2017-05-01T05:44:05.778Z,125
2017-05-01T05:44:31.255Z,125
2017-05-01T05:44:56.739Z,125
2017-05-01T05:45:22.195Z,125
2017-05-01T05:45:47.692Z,125
2017-05-01T05:46:13.183Z,125
2017-05-01T05:46:38.630Z,125
2017-05-01T05:47:04.100Z,125
2017-05-01T05:47:29.567Z,125
2017-05-01T05:47:55.069Z,125
2017-05-01T05:48:20.523Z,130
2017-05-01T05:48:45.997Z,130
2017-05-01T05:49:11.440Z,130
2017-05-01T05:49:36.948Z,135
2017-05-01T05:50:02.396Z,130
2017-05-01T05:50:27.914Z,135
2017-05-01T05:50:53.378Z,135
2017-05-01T05:51:18.835Z,140
2017-05-01T05:51:44.347Z,140
2017-05-01T05:52:09.796Z,145
2017-05-01T05:52:35.273Z,145
2017-05-01T05:53:00.778Z,150
2017-05-01T05:53:26.260Z,150
2017-05-01T05:53:51.712Z,155
2017-05-01T05:54:17.165Z,155
2017-05-01T05:54:42.608Z,160
2017-05-01T05:55:08.100Z,160
2017-05-01T05:55:33.560Z,165
2017-05-01T05:55:58.994Z,165
2017-05-01T05:56:24.458Z,165
2017-05-01T05:56:49.964Z,170
2017-05-01T05:57:15.409Z,170
2017-05-01T05:57:40.856Z,170
2017-05-01T05:58:06.339Z,170
2017-05-01T05:58:31.795Z,170
2017-05-01T05:58:57.258Z,165
2017-05-01T05:59:22.742Z,165
2017-05-01T05:59:48.171Z,165
2017-05-01T06:00:13.650Z,165
2017-05-01T06:00:39.112Z,165
2017-05-01T06:01:04.607Z,165
2017-05-01T06:01:30.096Z,165
2017-05-01T06:01:55.552Z,170
2017-05-01T06:02:21.045Z,170
2017-05-01T06:02:46.516Z,170
2017-05-01T06:03:11.982Z,170
2017-05-01T06:03:37.452Z,170
2017-05-01T06:04:02.911Z,170
2017-05-01T06:04:28.396Z,170
2017-05-01T06:04:53.819Z,175
2017-05-01T06:05:19.354Z,175
2017-05-01T06:05:44.739Z,175
2017-05-01T06:06:10.244Z,175
2017-05-01T06:06:35.687Z,175
2017-05-01T06:07:01.208Z,180
2017-05-01T06:07:26.632Z,180
2017-05-01T06:07:52.133Z,180
2017-05-01T06:08:17.579Z,180
2017-05-01T06:08:43.071Z,180
2017-05-01T06:09:08.552Z,180
2017-05-01T06:09:34.003Z,180
2017-05-01T06:09:59.504Z,180
2017-05-01T06:10:24.965Z,180
2017-05-01T06:10:50.443Z,180
2017-05-01T06:11:15.900Z,180
2017-05-01T06:11:41.362Z,180
2017-05-01T06:12:06.846Z,180
2017-05-01T06:12:32.331Z,180
2017-05-01T06:12:57.795Z,180
2017-05-01T06:13:23.265Z,180
2017-05-01T06:13:48.738Z,180
2017-05-01T06:14:14.185Z,180
2017-05-01T06:14:39.659Z,180
2017-05-01T06:15:05.152Z,180
2017-05-01T06:15:30.605Z,180
2017-05-01T06:15:56.025Z,180
2017-05-01T06:16:21.526Z,185
2017-05-01T06:16:46.993Z,180
2017-05-01T06:17:12.471Z,180
2017-05-01T06:17:37.922Z,180
2017-05-01T06:18:03.420Z,180
2017-05-01T06:18:28.918Z,180
2017-05-01T06:18:54.393Z,185
2017-05-01T06:19:19.848Z,185
2017-05-01T06:19:45.312Z,180
2017-05-01T06:20:10.806Z,180
2017-05-01T06:20:36.263Z,180
2017-05-01T06:21:01.715Z,185
2017-05-01T06:21:27.212Z,185
2017-05-01T06:21:52.678Z,185
2017-05-01T06:22:18.111Z,185
2017-05-01T06:22:43.580Z,185
2017-05-01T06:23:09.085Z,185
2017-05-01T06:23:34.581Z,185
2017-05-01T06:24:00.106Z,185
2017-05-01T06:24:25.549Z,185
2017-05-01T06:24:51.001Z,180
2017-05-01T06:25:16.499Z,180
2017-05-01T06:25:42.034Z,180
2017-05-01T06:26:07.455Z,175
2017-05-01T06:26:32.904Z,175
2017-05-01T06:26:58.381Z,175
2017-05-01T06:27:23.869Z,170
2017-05-01T06:27:49.338Z,170
2017-05-01T06:28:14.769Z,170
2017-05-01T06:28:40.228Z,165
2017-05-01T06:29:05.704Z,165
2017-05-01T06:29:31.160Z,165
2017-05-01T06:29:56.680Z,165
2017-05-01T06:30:22.228Z,165
2017-05-01T06:30:47.619Z,170
2017-05-01T06:31:13.097Z,170
2017-05-01T06:31:38.565Z,170
2017-05-01T06:32:04.035Z,170
2017-05-01T06:32:29.486Z,170
2017-05-01T06:32:54.991Z,175
2017-05-01T06:33:20.417Z,175
2017-05-01T06:33:45.896Z,175
2017-05-01T06:34:11.335Z,175
2017-05-01T06:34:36.835Z,175
2017-05-01T06:35:02.307Z,175
2017-05-01T06:35:27.793Z,175
2017-05-01T06:35:53.281Z,175
2017-05-01T06:36:18.708Z,175
2017-05-01T06:36:44.216Z,175
2017-05-01T06:37:09.709Z,175
2017-05-01T06:37:35.193Z,175
2017-05-01T06:38:00.635Z,175
2017-05-01T06:38:26.082Z,180
2017-05-01T06:38:51.536Z,180
2017-05-01T06:39:17.021Z,185
2017-05-01T06:39:42.494Z,185
2017-05-01T06:40:07.946Z,190
2017-05-01T06:40:33.392Z,190
2017-05-01T06:40:58.885Z,195
2017-05-01T06:41:24.357Z,195
2017-05-01T06:41:49.839Z,200
2017-05-01T06:42:15.284Z,200
2017-05-01T06:42:40.773Z,200
2017-05-01T06:43:06.278Z,200
2017-05-01T06:43:31.743Z,205
2017-05-01T06:43:57.214Z,205
2017-05-01T06:44:22.677Z,205
2017-05-01T06:44:48.140Z,205
2017-05-01T06:45:13.609Z,205
2017-05-01T06:45:39.064Z,205
2017-05-01T06:46:04.542Z,205
2017-05-01T06:46:30.002Z,210
2017-05-01T06:46:55.474Z,210
2017-05-01T06:47:20.942Z,210
2017-05-01T06:47:46.373Z,210
2017-05-01T06:48:11.838Z,210
2017-05-01T06:48:37.323Z,215
2017-05-01T06:49:02.781Z,215
2017-05-01T06:49:28.272Z,215
2017-05-01T06:49:53.731Z,215
2017-05-01T06:50:19.250Z,220
2017-05-01T06:50:44.714Z,220
2017-05-01T06:51:10.179Z,220
2017-05-01T06:51:35.666Z,220
2017-05-01T06:52:01.104Z,220
2017-05-01T06:52:26.604Z,225
2017-05-01T06:52:52.083Z,225
2017-05-01T06:53:17.556Z,225
2017-05-01T06:53:43.065Z,225
2017-05-01T06:54:08.503Z,225
2017-05-01T06:54:33.961Z,225
2017-05-01T06:54:59.473Z,225
2017-05-01T06:55:24.951Z,225
2017-05-01T06:55:50.374Z,225
2017-05-01T06:56:15.861Z,230
2017-05-01T06:56:41.324Z,230
2017-05-01T06:57:06.780Z,230
2017-05-01T06:57:32.250Z,230
2017-05-01T06:57:57.743Z,230
2017-05-01T06:58:23.187Z,230
2017-05-01T06:58:48.684Z,230
2017-05-01T06:59:14.193Z,225
2017-05-01T06:59:39.678Z,225
2017-05-01T07:00:05.177Z,225
2017-05-01T07:00:30.652Z,225
2017-05-01T07:00:56.130Z,225
2017-05-01T07:01:21.605Z,220
2017-05-01T07:01:47.065Z,220
2017-05-01T07:02:12.589Z,220
2017-05-01T07:02:38.045Z,220
2017-05-01T07:03:03.542Z,220
2017-05-01T07:03:29.013Z,220
2017-05-01T07:03:54.504Z,220
2017-05-01T07:04:19.976Z,220
2017-05-01T07:04:45.432Z,220
2017-05-01T07:05:10.912Z,220
2017-05-01T07:05:36.382Z,220
2017-05-01T07:06:01.871Z,225
2017-05-01T07:06:27.345Z,235
2017-05-01T07:06:52.804Z,230
2017-05-01T07:07:18.267Z,235
2017-05-01T07:07:43.745Z,240
2017-05-01T07:08:09.205Z,245
2017-05-01T07:08:34.678Z,245
2017-05-01T07:09:00.119Z,250
2017-05-01T07:09:25.625Z,255
2017-05-01T07:09:51.077Z,255
2017-05-01T07:10:16.584Z,260
2017-05-01T07:10:42.067Z,265
2017-05-01T07:11:07.506Z,265
2017-05-01T07:11:33.006Z,270
2017-05-01T07:11:58.501Z,270
2017-05-01T07:12:23.968Z,275
2017-05-01T07:12:49.452Z,275
2017-05-01T07:13:14.933Z,275
2017-05-01T07:13:40.388Z,275
2017-05-01T07:14:05.834Z,275
2017-05-01T07:14:31.321Z,280
2017-05-01T07:14:56.800Z,280
2017-05-01T07:15:22.392Z,280
2017-05-01T07:15:47.804Z,280
2017-05-01T07:16:13.241Z,275
2017-05-01T07:16:38.735Z,275
2017-05-01T07:17:04.227Z,275
2017-05-01T07:17:29.673Z,280
2017-05-01T07:17:55.166Z,275
2017-05-01T07:18:20.634Z,275
2017-05-01T07:18:46.080Z,275
2017-05-01T07:19:11.546Z,275
2017-05-01T07:19:37.018Z,275
2017-05-01T07:20:02.454Z,275
2017-05-01T07:20:27.949Z,275
2017-05-01T07:20:53.399Z,280
2017-05-01T07:21:18.862Z,280
2017-05-01T07:21:44.330Z,285
2017-05-01T07:22:09.808Z,285
2017-05-01T07:22:35.284Z,285
2017-05-01T07:23:00.767Z,285
2017-05-01T07:23:26.216Z,290
2017-05-01T07:23:51.675Z,290
2017-05-01T07:24:17.136Z,295
2017-05-01T07:24:42.609Z,300
2017-05-01T07:25:08.064Z,300
2017-05-01T07:25:33.520Z,305
2017-05-01T07:25:58.989Z,305
2017-05-01T07:26:24.452Z,310
2017-05-01T07:26:49.923Z,310
2017-05-01T07:27:15.398Z,315
2017-05-01T07:27:40.873Z,315
2017-05-01T07:28:06.370Z,320
2017-05-01T07:28:31.810Z,325
2017-05-01T07:28:57.294Z,325
2017-05-01T07:29:22.778Z,330
2017-05-01T07:29:48.241Z,330
2017-05-01T07:30:13.707Z,335
2017-05-01T07:30:39.202Z,335
2017-05-01T07:31:04.640Z,340
2017-05-01T07:31:30.111Z,340
2017-05-01T07:31:55.571Z,345
2017-05-01T07:32:21.152Z,345
2017-05-01T07:32:46.515Z,350
2017-05-01T07:33:12.025Z,350
2017-05-01T07:33:37.498Z,355
2017-05-01T07:34:02.949Z,360
2017-05-01T07:34:28.405Z,360
2017-05-01T07:34:53.911Z,365
2017-05-01T07:35:19.359Z,365
2017-05-01T07:35:44.842Z,370
2017-05-01T07:36:10.303Z,370
2017-05-01T07:36:35.814Z,375
2017-05-01T07:37:01.309Z,375
2017-05-01T07:37:26.766Z,380
2017-05-01T07:37:52.229Z,380
2017-05-01T07:38:17.693Z,380
2017-05-01T07:38:43.188Z,385
2017-05-01T07:39:08.663Z,385
2017-05-01T07:39:34.099Z,385
2017-05-01T07:39:59.542Z,380
2017-05-01T07:40:25.013Z,380
2017-05-01T07:40:50.505Z,380
2017-05-01T07:41:15.974Z,375
2017-05-01T07:41:41.422Z,375
2017-05-01T07:42:06.865Z,370
2017-05-01T07:42:32.375Z,370
2017-05-01T07:42:57.798Z,370
2017-05-01T07:43:23.259Z,365
2017-05-01T07:43:48.727Z,365
2017-05-01T07:44:14.175Z,365
2017-05-01T07:44:39.653Z,365
2017-05-01T07:45:05.077Z,365
2017-05-01T07:45:30.567Z,365
2017-05-01T07:45:56.017Z,365
2017-05-01T07:46:21.487Z,365
2017-05-01T07:46:46.965Z,365
2017-05-01T07:47:12.380Z,365
2017-05-01T07:47:37.916Z,365
2017-05-01T07:48:03.418Z,365
2017-05-01T07:48:28.878Z,365
2017-05-01T07:48:54.360Z,360
2017-05-01T07:49:19.836Z,360
2017-05-01T07:49:45.292Z,360
2017-05-01T07:50:10.839Z,355
2017-05-01T07:50:36.309Z,355
2017-05-01T07:51:01.801Z,355
2017-05-01T07:51:27.301Z,355
2017-05-01T07:51:52.723Z,355
2017-05-01T07:52:18.241Z,355
2017-05-01T07:52:43.722Z,355
2017-05-01T07:53:09.168Z,355
2017-05-01T07:53:34.632Z,355
2017-05-01T07:54:00.108Z,355
2017-05-01T07:54:25.597Z,360
2017-05-01T07:54:51.083Z,360
2017-05-01T07:55:16.554Z,360
2017-05-01T07:55:42.061Z,360
2017-05-01T07:56:07.548Z,365
2017-05-01T07:56:33.029Z,365
2017-05-01T07:56:58.491Z,365
2017-05-01T07:57:23.950Z,370
2017-05-01T07:57:49.431Z,370
2017-05-01T07:58:14.883Z,370
2017-05-01T07:58:40.425Z,370
2017-05-01T07:59:05.804Z,375
2017-05-01T07:59:31.371Z,375
2017-05-01T07:59:56.862Z,380
2017-05-01T08:00:22.300Z,380
2017-05-01T08:00:47.818Z,385
2017-05-01T08:01:13.300Z,385
2017-05-01T08:01:38.757Z,390
2017-05-01T08:02:04.229Z,390
2017-05-01T08:02:29.719Z,390
2017-05-01T08:02:55.202Z,395
2017-05-01T08:03:20.713Z,395
2017-05-01T08:03:46.132Z,400
2017-05-01T08:04:11.647Z,400
2017-05-01T08:04:37.207Z,400
2017-05-01T08:05:02.702Z,405
2017-05-01T08:05:28.134Z,400
2017-05-01T08:05:53.698Z,400
2017-05-01T08:06:19.072Z,400
2017-05-01T08:06:44.548Z,400
2017-05-01T08:07:10.037Z,400
2017-05-01T08:07:35.459Z,400
2017-05-01T08:08:01.004Z,395
2017-05-01T08:08:26.422Z,395
2017-05-01T08:08:51.930Z,395
2017-05-01T08:09:17.451Z,395
2017-05-01T08:09:42.927Z,390
2017-05-01T08:10:08.414Z,390
2017-05-01T08:10:33.963Z,390
2017-05-01T08:10:59.363Z,390
2017-05-01T08:11:24.867Z,390
2017-05-01T08:11:50.340Z,390
2017-05-01T08:12:15.899Z,390
2017-05-01T08:12:41.291Z,395
2017-05-01T08:13:06.749Z,395
2017-05-01T08:13:32.292Z,400
2017-05-01T08:13:57.769Z,400
2017-05-01T08:14:23.259Z,400
2017-05-01T08:14:48.710Z,405
2017-05-01T08:15:14.233Z,410
2017-05-01T08:15:39.658Z,410
2017-05-01T08:16:05.108Z,410
2017-05-01T08:16:30.594Z,410
2017-05-01T08:16:56.102Z,415
2017-05-01T08:17:21.623Z,415
2017-05-01T08:17:47.083Z,415
2017-05-01T08:18:12.563Z,415
2017-05-01T08:18:38.084Z,415
2017-05-01T08:19:03.533Z,415
2017-05-01T08:19:29.024Z,420
2017-05-01T08:19:54.506Z,420
2017-05-01T08:20:20.053Z,420
2017-05-01T08:20:45.550Z,425
2017-05-01T08:21:11.005Z,425
2017-05-01T08:21:36.460Z,430
2017-05-01T08:22:01.925Z,430
2017-05-01T08:22:27.459Z,430
2017-05-01T08:22:52.922Z,430
2017-05-01T08:23:18.472Z,430
2017-05-01T08:23:43.992Z,435
2017-05-01T08:24:09.540Z,435
2017-05-01T08:24:34.950Z,435
2017-05-01T08:25:00.415Z,440
2017-05-01T08:25:25.880Z,440
2017-05-01T08:25:51.419Z,445
2017-05-01T08:26:16.932Z,445
2017-05-01T08:26:42.326Z,445
2017-05-01T08:27:07.822Z,455
2017-05-01T08:27:33.278Z,450
2017-05-01T08:27:58.712Z,450
2017-05-01T08:28:24.212Z,455
2017-05-01T08:28:49.677Z,455
2017-05-01T08:29:15.232Z,455
2017-05-01T08:29:40.685Z,460
2017-05-01T08:30:06.179Z,460
2017-05-01T08:30:31.631Z,460
2017-05-01T08:30:57.092Z,465
2017-05-01T08:31:22.620Z,465
2017-05-01T08:31:48.017Z,465
2017-05-01T08:32:13.532Z,465
2017-05-01T08:32:39.029Z,470
2017-05-01T08:33:04.479Z,470
2017-05-01T08:33:29.952Z,470
2017-05-01T08:33:55.457Z,470
2017-05-01T08:34:20.961Z,470
2017-05-01T08:34:46.466Z,470
2017-05-01T08:35:11.929Z,470
2017-05-01T08:35:37.386Z,475
2017-05-01T08:36:02.851Z,475
2017-05-01T08:36:28.334Z,475
2017-05-01T08:36:53.789Z,480
2017-05-01T08:37:19.341Z,480
2017-05-01T08:37:44.771Z,480
2017-05-01T08:38:10.268Z,485
2017-05-01T08:38:35.783Z,485
2017-05-01T08:39:01.264Z,485
2017-05-01T08:39:26.673Z,490
2017-05-01T08:39:52.171Z,490
2017-05-01T08:40:17.647Z,495
2017-05-01T08:40:43.115Z,495
2017-05-01T08:41:08.722Z,495
2017-05-01T08:41:34.156Z,495
2017-05-01T08:41:59.650Z,495
2017-05-01T08:42:25.132Z,495
2017-05-01T08:42:50.583Z,495
2017-05-01T08:43:16.078Z,495
2017-05-01T08:43:41.570Z,495
2017-05-01T08:44:07.122Z,495
2017-05-01T08:44:32.577Z,495
2017-05-01T08:44:57.996Z,495
2017-05-01T08:45:23.537Z,495
2017-05-01T08:45:48.965Z,495
2017-05-01T08:46:14.429Z,500
2017-05-01T08:46:39.898Z,500
2017-05-01T08:47:05.361Z,500
2017-05-01T08:47:30.886Z,500
2017-05-01T08:47:56.351Z,500
2017-05-01T08:48:21.814Z,510
2017-05-01T08:48:47.354Z,505
2017-05-01T08:49:12.829Z,510
2017-05-01T08:49:38.357Z,510
2017-05-01T08:50:03.841Z,510
2017-05-01T08:50:29.361Z,515
2017-05-01T08:50:54.878Z,515
2017-05-01T08:51:20.316Z,520
2017-05-01T08:51:45.814Z,520
2017-05-01T08:52:11.282Z,520
2017-05-01T08:52:36.774Z,525
2017-05-01T08:53:02.278Z,525
2017-05-01T08:53:27.791Z,535
2017-05-01T08:53:53.320Z,530
2017-05-01T08:54:18.814Z,530
2017-05-01T08:54:44.274Z,530
2017-05-01T08:55:09.767Z,535
2017-05-01T08:55:35.218Z,535
2017-05-01T08:56:00.671Z,535
2017-05-01T08:56:26.175Z,540
2017-05-01T08:56:51.620Z,540
2017-05-01T08:57:17.113Z,540
2017-05-01T08:57:42.591Z,545
2017-05-01T08:58:08.067Z,545
2017-05-01T08:58:33.597Z,545
2017-05-01T08:58:59.070Z,545
2017-05-01T08:59:24.605Z,545
2017-05-01T08:59:50.119Z,555
2017-05-01T09:00:15.632Z,550
2017-05-01T09:00:41.081Z,550
2017-05-01T09:01:06.620Z,550
2017-05-01T09:01:32.110Z,550
2017-05-01T09:01:57.570Z,555
2017-05-01T09:02:23.005Z,555
2017-05-01T09:02:48.483Z,555
2017-05-01T09:03:14.065Z,555
2017-05-01T09:03:39.476Z,555
2017-05-01T09:04:04.942Z,560
2017-05-01T09:04:30.409Z,560
2017-05-01T09:04:55.889Z,560
2017-05-01T09:05:21.447Z,560
2017-05-01T09:05:46.857Z,560
2017-05-01T09:06:12.379Z,565
2017-05-01T09:06:37.864Z,565
2017-05-01T09:07:03.406Z,565
2017-05-01T09:07:28.919Z,565
2017-05-01T09:07:54.391Z,570
2017-05-01T09:08:19.891Z,570
2017-05-01T09:08:45.354Z,575
2017-05-01T09:09:10.840Z,575
2017-05-01T09:09:36.334Z,580
2017-05-01T09:10:01.800Z,585
2017-05-01T09:10:27.260Z,585
2017-05-01T09:10:52.737Z,595
2017-05-01T09:11:18.232Z,590
2017-05-01T09:11:43.777Z,595
2017-05-01T09:12:09.141Z,600
2017-05-01T09:12:34.664Z,600
2017-05-01T09:13:00.108Z,605
2017-05-01T09:13:25.604Z,605
2017-05-01T09:13:51.073Z,605
2017-05-01T09:14:16.554Z,605
2017-05-01T09:14:42.033Z,610
2017-05-01T09:15:07.511Z,615
2017-05-01T09:15:32.971Z,620
2017-05-01T09:15:58.469Z,625
2017-05-01T09:16:23.957Z,625
2017-05-01T09:16:49.480Z,630
2017-05-01T09:17:14.947Z,630
2017-05-01T09:17:40.436Z,630
2017-05-01T09:18:05.885Z,635
2017-05-01T09:18:31.390Z,635
2017-05-01T09:18:56.936Z,635
2017-05-01T09:19:22.387Z,640
2017-05-01T09:19:47.838Z,645
2017-05-01T09:20:13.324Z,640
2017-05-01T09:20:38.817Z,645
2017-05-01T09:21:04.272Z,645
2017-05-01T09:21:29.763Z,645
2017-05-01T09:21:55.247Z,645
2017-05-01T09:22:20.702Z,645
2017-05-01T09:22:46.134Z,645
2017-05-01T09:23:11.587Z,645
2017-05-01T09:23:37.068Z,645
2017-05-01T09:24:02.552Z,640
2017-05-01T09:24:28.004Z,635
2017-05-01T09:24:53.801Z,630
2017-05-01T09:25:19.268Z,620
2017-05-01T09:25:44.741Z,620
2017-05-01T09:26:10.206Z,610
2017-05-01T09:26:35.758Z,600
2017-05-01T09:27:01.219Z,585
2017-05-01T09:27:26.686Z,570
2017-05-01T09:27:52.150Z,560
2017-05-01T09:28:17.622Z,550
2017-05-01T09:28:43.081Z,545
2017-05-01T09:29:08.531Z,530
2017-05-01T09:29:34.121Z,525
2017-05-01T09:29:59.662Z,515
2017-05-01T09:30:25.137Z,515
2017-05-01T09:30:50.650Z,505
2017-05-01T09:31:16.106Z,505
2017-05-01T09:31:41.567Z,500
2017-05-01T09:32:07.049Z,500
2017-05-01T09:32:32.495Z,500
2017-05-01T09:32:57.968Z,500
2017-05-01T09:33:23.405Z,500
2017-05-01T09:33:48.949Z,505
2017-05-01T09:34:14.365Z,510
2017-05-01T09:34:39.834Z,510
2017-05-01T09:35:05.316Z,510
2017-05-01T09:35:30.793Z,515
2017-05-01T09:35:56.272Z,515
2017-05-01T09:36:21.740Z,525
2017-05-01T09:36:47.230Z,525
2017-05-01T09:37:12.694Z,525
2017-05-01T09:37:38.152Z,525
2017-05-01T09:38:03.643Z,530
2017-05-01T09:38:29.109Z,535
2017-05-01T09:38:54.576Z,540
2017-05-01T09:39:20.059Z,545
2017-05-01T09:39:45.496Z,545
2017-05-01T09:40:10.974Z,540
2017-05-01T09:40:36.503Z,540
2017-05-01T09:41:01.995Z,535
2017-05-01T09:41:27.413Z,530
2017-05-01T09:41:52.930Z,530
2017-05-01T09:42:18.375Z,520
2017-05-01T09:42:43.871Z,520
2017-05-01T09:43:09.321Z,520
2017-05-01T09:43:34.785Z,515
2017-05-01T09:44:00.277Z,515
2017-05-01T09:44:25.782Z,520
2017-05-01T09:44:51.240Z,520
2017-05-01T09:45:16.737Z,525
2017-05-01T09:45:42.229Z,520
2017-05-01T09:46:07.707Z,520
2017-05-01T09:46:33.204Z,520
2017-05-01T09:46:58.640Z,515
2017-05-01T09:47:24.178Z,515
2017-05-01T09:47:49.629Z,515
2017-05-01T09:48:15.135Z,510
2017-05-01T09:48:40.622Z,510
2017-05-01T09:49:06.097Z,505
2017-05-01T09:49:31.549Z,505
2017-05-01T09:49:57.105Z,505
2017-05-01T09:50:22.570Z,505
2017-05-01T09:50:48.050Z,500
2017-05-01T09:51:13.519Z,500
2017-05-01T09:51:38.981Z,500
2017-05-01T09:52:04.535Z,505
2017-05-01T09:52:29.950Z,495
2017-05-01T09:52:55.427Z,490
2017-05-01T09:53:20.965Z,490
2017-05-01T09:53:46.483Z,490
2017-05-01T09:54:11.893Z,485